sensor_id;sensor_type;location;lat;lon;timestamp;P1;durP1;ratioP1;P2;durP2;ratioP2
50683;SDS011;36654;45.042;38.994;2023-02-11T00:00:05;94.30;;;41.85;;
50683;SDS011;36654;45.042;38.994;2023-02-11T00:02:32;102.88;;;41.95;;
50683;SDS011;36654;45.042;38.994;2023-02-11T00:04:58;89.13;;;40.33;;
50683;SDS011;36654;45.042;38.994;2023-02-11T00:07:27;93.40;;;40.75;;
50683;SDS011;36654;45.042;38.994;2023-02-11T00:09:53;98.97;;;43.03;;
50683;SDS011;36654;45.042;38.994;2023-02-11T00:12:19;86.93;;;40.38;;
50683;SDS011;36654;45.042;38.994;2023-02-11T00:14:45;88.53;;;41.08;;
50683;SDS011;36654;45.042;38.994;2023-02-11T00:17:11;99.60;;;40.53;;
50683;SDS011;36654;45.042;38.994;2023-02-11T00:19:36;86.20;;;36.25;;
50683;SDS011;36654;45.042;38.994;2023-02-11T00:22:02;90.13;;;39.35;;
50683;SDS011;36654;45.042;38.994;2023-02-11T00:24:27;103.60;;;42.25;;
50683;SDS011;36654;45.042;38.994;2023-02-11T00:26:54;82.53;;;37.30;;
50683;SDS011;36654;45.042;38.994;2023-02-11T00:29:19;87.55;;;38.25;;
50683;SDS011;36654;45.042;38.994;2023-02-11T00:31:45;90.57;;;38.60;;
50683;SDS011;36654;45.042;38.994;2023-02-11T00:34:12;102.65;;;42.20;;
50683;SDS011;36654;45.042;38.994;2023-02-11T00:36:37;90.97;;;37.97;;
50683;SDS011;36654;45.042;38.994;2023-02-11T00:39:03;94.63;;;38.33;;
50683;SDS011;36654;45.042;38.994;2023-02-11T00:41:29;85.80;;;38.50;;
50683;SDS011;36654;45.042;38.994;2023-02-11T00:43:55;78.10;;;35.33;;
50683;SDS011;36654;45.042;38.994;2023-02-11T00:46:20;88.53;;;38.60;;
50683;SDS011;36654;45.042;38.994;2023-02-11T00:48:46;84.35;;;38.65;;
50683;SDS011;36654;45.042;38.994;2023-02-11T00:51:12;90.85;;;39.50;;
50683;SDS011;36654;45.042;38.994;2023-02-11T00:53:37;87.78;;;37.70;;
50683;SDS011;36654;45.042;38.994;2023-02-11T00:56:03;95.00;;;39.78;;
50683;SDS011;36654;45.042;38.994;2023-02-11T00:58:29;85.63;;;38.58;;
50683;SDS011;36654;45.042;38.994;2023-02-11T01:00:55;93.53;;;38.80;;
50683;SDS011;36654;45.042;38.994;2023-02-11T01:03:21;85.75;;;38.08;;
50683;SDS011;36654;45.042;38.994;2023-02-11T01:05:46;84.18;;;36.30;;
50683;SDS011;36654;45.042;38.994;2023-02-11T01:08:12;85.18;;;37.65;;
50683;SDS011;36654;45.042;38.994;2023-02-11T01:10:38;75.15;;;36.30;;
50683;SDS011;36654;45.042;38.994;2023-02-11T01:13:03;87.53;;;36.03;;
50683;SDS011;36654;45.042;38.994;2023-02-11T01:15:30;85.63;;;37.03;;
50683;SDS011;36654;45.042;38.994;2023-02-11T01:17:57;92.55;;;39.70;;
50683;SDS011;36654;45.042;38.994;2023-02-11T01:20:23;83.80;;;35.35;;
50683;SDS011;36654;45.042;38.994;2023-02-11T01:22:50;84.40;;;39.17;;
50683;SDS011;36654;45.042;38.994;2023-02-11T01:25:16;80.90;;;38.03;;
50683;SDS011;36654;45.042;38.994;2023-02-11T01:27:41;93.35;;;38.13;;
50683;SDS011;36654;45.042;38.994;2023-02-11T01:30:08;84.30;;;36.67;;
50683;SDS011;36654;45.042;38.994;2023-02-11T01:32:36;90.95;;;38.38;;
50683;SDS011;36654;45.042;38.994;2023-02-11T01:35:02;80.07;;;36.10;;
50683;SDS011;36654;45.042;38.994;2023-02-11T01:37:27;91.45;;;36.65;;
50683;SDS011;36654;45.042;38.994;2023-02-11T01:39:53;87.82;;;37.25;;
50683;SDS011;36654;45.042;38.994;2023-02-11T01:42:19;83.38;;;35.45;;
50683;SDS011;36654;45.042;38.994;2023-02-11T01:44:50;93.15;;;40.95;;
50683;SDS011;36654;45.042;38.994;2023-02-11T01:47:19;92.43;;;40.10;;
50683;SDS011;36654;45.042;38.994;2023-02-11T01:49:49;89.72;;;39.92;;
50683;SDS011;36654;45.042;38.994;2023-02-11T01:54:58;86.78;;;36.92;;
50683;SDS011;36654;45.042;38.994;2023-02-11T01:57:55;95.80;;;42.75;;
50683;SDS011;36654;45.042;38.994;2023-02-11T02:00:25;87.75;;;38.30;;
50683;SDS011;36654;45.042;38.994;2023-02-11T02:02:59;83.13;;;36.40;;
50683;SDS011;36654;45.042;38.994;2023-02-11T02:10:54;82.75;;;37.83;;
50683;SDS011;36654;45.042;38.994;2023-02-11T02:13:23;97.78;;;37.63;;
50683;SDS011;36654;45.042;38.994;2023-02-11T02:24:13;89.72;;;39.35;;
50683;SDS011;36654;45.042;38.994;2023-02-11T02:32:27;83.82;;;36.67;;
50683;SDS011;36654;45.042;38.994;2023-02-11T02:38:14;89.38;;;38.42;;
50683;SDS011;36654;45.042;38.994;2023-02-11T02:43:16;84.05;;;36.90;;
50683;SDS011;36654;45.042;38.994;2023-02-11T02:45:43;92.28;;;36.85;;
50683;SDS011;36654;45.042;38.994;2023-02-11T03:02:10;84.65;;;34.55;;
50683;SDS011;36654;45.042;38.994;2023-02-11T03:07:24;84.75;;;36.35;;
50683;SDS011;36654;45.042;38.994;2023-02-11T03:09:59;81.25;;;33.80;;
50683;SDS011;36654;45.042;38.994;2023-02-11T03:12:32;79.40;;;35.63;;
50683;SDS011;36654;45.042;38.994;2023-02-11T03:15:00;89.00;;;34.10;;
50683;SDS011;36654;45.042;38.994;2023-02-11T03:17:29;87.28;;;38.22;;
50683;SDS011;36654;45.042;38.994;2023-02-11T03:19:58;91.22;;;38.25;;
50683;SDS011;36654;45.042;38.994;2023-02-11T03:22:25;84.18;;;39.72;;
50683;SDS011;36654;45.042;38.994;2023-02-11T03:24:56;88.30;;;37.13;;
50683;SDS011;36654;45.042;38.994;2023-02-11T03:30:20;83.57;;;35.63;;
50683;SDS011;36654;45.042;38.994;2023-02-11T03:32:55;83.65;;;37.90;;
50683;SDS011;36654;45.042;38.994;2023-02-11T03:38:21;87.18;;;37.30;;
50683;SDS011;36654;45.042;38.994;2023-02-11T03:40:51;81.45;;;37.67;;
50683;SDS011;36654;45.042;38.994;2023-02-11T03:43:32;82.68;;;35.85;;
50683;SDS011;36654;45.042;38.994;2023-02-11T03:46:05;88.32;;;37.22;;
50683;SDS011;36654;45.042;38.994;2023-02-11T03:48:37;86.45;;;34.28;;
50683;SDS011;36654;45.042;38.994;2023-02-11T03:51:11;89.38;;;36.25;;
50683;SDS011;36654;45.042;38.994;2023-02-11T03:53:38;83.25;;;37.50;;
50683;SDS011;36654;45.042;38.994;2023-02-11T03:56:07;87.72;;;36.67;;
50683;SDS011;36654;45.042;38.994;2023-02-11T03:58:37;84.97;;;37.45;;
50683;SDS011;36654;45.042;38.994;2023-02-11T04:01:02;93.47;;;38.38;;
50683;SDS011;36654;45.042;38.994;2023-02-11T04:03:29;78.95;;;35.45;;
50683;SDS011;36654;45.042;38.994;2023-02-11T04:05:56;85.70;;;38.13;;
50683;SDS011;36654;45.042;38.994;2023-02-11T04:08:22;92.60;;;36.72;;
50683;SDS011;36654;45.042;38.994;2023-02-11T04:10:48;92.63;;;38.63;;
50683;SDS011;36654;45.042;38.994;2023-02-11T04:13:13;88.60;;;38.00;;
50683;SDS011;36654;45.042;38.994;2023-02-11T04:15:39;87.70;;;36.70;;
50683;SDS011;36654;45.042;38.994;2023-02-11T04:18:05;91.57;;;38.80;;
50683;SDS011;36654;45.042;38.994;2023-02-11T04:20:30;87.70;;;37.40;;
50683;SDS011;36654;45.042;38.994;2023-02-11T04:22:56;87.70;;;38.25;;
50683;SDS011;36654;45.042;38.994;2023-02-11T04:25:21;91.40;;;40.67;;
50683;SDS011;36654;45.042;38.994;2023-02-11T04:27:47;83.47;;;36.42;;
50683;SDS011;36654;45.042;38.994;2023-02-11T04:30:12;95.10;;;39.72;;
50683;SDS011;36654;45.042;38.994;2023-02-11T04:32:38;94.45;;;38.45;;
50683;SDS011;36654;45.042;38.994;2023-02-11T04:35:05;88.72;;;37.28;;
50683;SDS011;36654;45.042;38.994;2023-02-11T04:37:31;92.72;;;38.38;;
50683;SDS011;36654;45.042;38.994;2023-02-11T04:39:56;94.07;;;39.22;;
50683;SDS011;36654;45.042;38.994;2023-02-11T04:42:22;89.65;;;40.83;;
50683;SDS011;36654;45.042;38.994;2023-02-11T04:44:47;89.18;;;37.13;;
50683;SDS011;36654;45.042;38.994;2023-02-11T04:47:13;86.60;;;36.03;;
50683;SDS011;36654;45.042;38.994;2023-02-11T04:49:39;94.15;;;38.13;;
50683;SDS011;36654;45.042;38.994;2023-02-11T04:52:06;86.32;;;36.45;;
50683;SDS011;36654;45.042;38.994;2023-02-11T04:54:32;91.00;;;37.13;;
50683;SDS011;36654;45.042;38.994;2023-02-11T04:56:57;88.78;;;38.05;;
50683;SDS011;36654;45.042;38.994;2023-02-11T04:59:23;89.00;;;37.17;;
50683;SDS011;36654;45.042;38.994;2023-02-11T05:01:49;85.80;;;36.10;;
50683;SDS011;36654;45.042;38.994;2023-02-11T05:04:14;83.07;;;34.17;;
50683;SDS011;36654;45.042;38.994;2023-02-11T05:06:41;93.35;;;37.65;;
50683;SDS011;36654;45.042;38.994;2023-02-11T05:09:06;82.95;;;36.65;;
50683;SDS011;36654;45.042;38.994;2023-02-11T05:11:33;80.22;;;34.15;;
50683;SDS011;36654;45.042;38.994;2023-02-11T05:14:00;86.07;;;37.10;;
50683;SDS011;36654;45.042;38.994;2023-02-11T05:16:26;72.70;;;32.42;;
50683;SDS011;36654;45.042;38.994;2023-02-11T05:18:52;89.97;;;34.90;;
50683;SDS011;36654;45.042;38.994;2023-02-11T05:21:19;70.30;;;30.52;;
50683;SDS011;36654;45.042;38.994;2023-02-11T05:23:45;71.45;;;31.77;;
50683;SDS011;36654;45.042;38.994;2023-02-11T05:26:11;69.45;;;32.15;;
50683;SDS011;36654;45.042;38.994;2023-02-11T05:28:37;72.97;;;30.10;;
50683;SDS011;36654;45.042;38.994;2023-02-11T05:31:03;72.05;;;29.98;;
50683;SDS011;36654;45.042;38.994;2023-02-11T05:33:29;62.30;;;28.80;;
50683;SDS011;36654;45.042;38.994;2023-02-11T05:35:58;69.57;;;29.00;;
50683;SDS011;36654;45.042;38.994;2023-02-11T05:38:25;77.85;;;30.55;;
50683;SDS011;36654;45.042;38.994;2023-02-11T05:40:51;67.38;;;31.30;;
50683;SDS011;36654;45.042;38.994;2023-02-11T05:43:17;67.57;;;29.35;;
50683;SDS011;36654;45.042;38.994;2023-02-11T05:45:42;70.45;;;29.13;;
50683;SDS011;36654;45.042;38.994;2023-02-11T05:48:08;67.72;;;28.98;;
50683;SDS011;36654;45.042;38.994;2023-02-11T05:50:34;69.38;;;30.33;;
50683;SDS011;36654;45.042;38.994;2023-02-11T05:52:59;66.05;;;30.08;;
50683;SDS011;36654;45.042;38.994;2023-02-11T05:55:25;66.97;;;28.30;;
50683;SDS011;36654;45.042;38.994;2023-02-11T05:57:50;66.20;;;27.92;;
50683;SDS011;36654;45.042;38.994;2023-02-11T06:00:16;66.88;;;28.15;;
50683;SDS011;36654;45.042;38.994;2023-02-11T06:02:42;72.05;;;31.00;;
50683;SDS011;36654;45.042;38.994;2023-02-11T06:05:08;80.45;;;30.08;;
50683;SDS011;36654;45.042;38.994;2023-02-11T06:07:33;67.47;;;32.13;;
50683;SDS011;36654;45.042;38.994;2023-02-11T06:09:59;74.55;;;31.75;;
50683;SDS011;36654;45.042;38.994;2023-02-11T06:12:25;69.20;;;29.90;;
50683;SDS011;36654;45.042;38.994;2023-02-11T06:14:53;75.93;;;34.08;;
50683;SDS011;36654;45.042;38.994;2023-02-11T06:17:18;77.82;;;34.75;;
50683;SDS011;36654;45.042;38.994;2023-02-11T06:19:44;85.25;;;34.95;;
50683;SDS011;36654;45.042;38.994;2023-02-11T06:22:09;95.38;;;40.95;;
50683;SDS011;36654;45.042;38.994;2023-02-11T06:24:35;78.53;;;34.95;;
50683;SDS011;36654;45.042;38.994;2023-02-11T06:27:04;80.32;;;35.95;;
50683;SDS011;36654;45.042;38.994;2023-02-11T06:29:30;82.95;;;36.38;;
50683;SDS011;36654;45.042;38.994;2023-02-11T06:31:55;75.60;;;34.60;;
50683;SDS011;36654;45.042;38.994;2023-02-11T06:34:21;89.68;;;39.08;;
50683;SDS011;36654;45.042;38.994;2023-02-11T06:36:46;88.95;;;38.83;;
50683;SDS011;36654;45.042;38.994;2023-02-11T06:39:12;86.28;;;41.05;;
50683;SDS011;36654;45.042;38.994;2023-02-11T06:41:38;85.22;;;37.33;;
50683;SDS011;36654;45.042;38.994;2023-02-11T06:44:04;84.80;;;37.92;;
50683;SDS011;36654;45.042;38.994;2023-02-11T06:46:30;89.35;;;38.13;;
50683;SDS011;36654;45.042;38.994;2023-02-11T06:48:56;87.00;;;38.30;;
50683;SDS011;36654;45.042;38.994;2023-02-11T06:51:21;89.50;;;38.50;;
50683;SDS011;36654;45.042;38.994;2023-02-11T06:53:47;88.43;;;38.50;;
50683;SDS011;36654;45.042;38.994;2023-02-11T06:56:14;90.32;;;39.35;;
50683;SDS011;36654;45.042;38.994;2023-02-11T06:58:45;96.40;;;40.50;;
50683;SDS011;36654;45.042;38.994;2023-02-11T07:01:12;88.22;;;39.83;;
50683;SDS011;36654;45.042;38.994;2023-02-11T07:03:40;90.38;;;40.47;;
50683;SDS011;36654;45.042;38.994;2023-02-11T07:06:10;97.30;;;42.22;;
50683;SDS011;36654;45.042;38.994;2023-02-11T07:08:38;91.07;;;40.90;;
50683;SDS011;36654;45.042;38.994;2023-02-11T07:11:09;94.72;;;42.92;;
50683;SDS011;36654;45.042;38.994;2023-02-11T07:13:35;89.13;;;40.63;;
50683;SDS011;36654;45.042;38.994;2023-02-11T07:16:05;92.32;;;41.10;;
50683;SDS011;36654;45.042;38.994;2023-02-11T07:18:33;90.38;;;40.67;;
50683;SDS011;36654;45.042;38.994;2023-02-11T07:20:59;95.20;;;42.13;;
50683;SDS011;36654;45.042;38.994;2023-02-11T07:23:29;94.55;;;42.72;;
50683;SDS011;36654;45.042;38.994;2023-02-11T07:25:55;95.82;;;42.42;;
50683;SDS011;36654;45.042;38.994;2023-02-11T07:28:20;100.30;;;43.38;;
50683;SDS011;36654;45.042;38.994;2023-02-11T07:30:46;110.78;;;48.20;;
50683;SDS011;36654;45.042;38.994;2023-02-11T07:33:12;96.95;;;44.45;;
50683;SDS011;36654;45.042;38.994;2023-02-11T07:35:37;107.47;;;46.13;;
50683;SDS011;36654;45.042;38.994;2023-02-11T07:38:03;97.85;;;43.40;;
50683;SDS011;36654;45.042;38.994;2023-02-11T07:40:28;155.48;;;70.32;;
50683;SDS011;36654;45.042;38.994;2023-02-11T07:42:55;100.20;;;45.38;;
50683;SDS011;36654;45.042;38.994;2023-02-11T07:45:21;100.63;;;44.25;;
50683;SDS011;36654;45.042;38.994;2023-02-11T07:47:49;89.35;;;41.30;;
50683;SDS011;36654;45.042;38.994;2023-02-11T07:50:15;96.53;;;44.17;;
50683;SDS011;36654;45.042;38.994;2023-02-11T07:52:41;102.50;;;43.65;;
50683;SDS011;36654;45.042;38.994;2023-02-11T07:55:07;96.60;;;45.38;;
50683;SDS011;36654;45.042;38.994;2023-02-11T07:57:34;95.88;;;43.65;;
50683;SDS011;36654;45.042;38.994;2023-02-11T07:59:59;94.38;;;41.95;;
50683;SDS011;36654;45.042;38.994;2023-02-11T08:02:25;96.82;;;43.95;;
50683;SDS011;36654;45.042;38.994;2023-02-11T08:04:51;95.20;;;43.80;;
50683;SDS011;36654;45.042;38.994;2023-02-11T08:07:17;87.10;;;40.78;;
50683;SDS011;36654;45.042;38.994;2023-02-11T08:09:43;95.03;;;44.03;;
50683;SDS011;36654;45.042;38.994;2023-02-11T08:12:09;102.63;;;44.08;;
50683;SDS011;36654;45.042;38.994;2023-02-11T08:14:35;94.60;;;41.47;;
50683;SDS011;36654;45.042;38.994;2023-02-11T08:17:00;99.45;;;43.08;;
50683;SDS011;36654;45.042;38.994;2023-02-11T08:19:26;99.60;;;43.42;;
50683;SDS011;36654;45.042;38.994;2023-02-11T08:21:55;96.53;;;44.38;;
50683;SDS011;36654;45.042;38.994;2023-02-11T08:24:21;95.47;;;45.13;;
50683;SDS011;36654;45.042;38.994;2023-02-11T08:26:47;94.63;;;41.72;;
50683;SDS011;36654;45.042;38.994;2023-02-11T08:29:13;98.72;;;45.60;;
50683;SDS011;36654;45.042;38.994;2023-02-11T08:31:41;95.70;;;43.70;;
50683;SDS011;36654;45.042;38.994;2023-02-11T08:34:10;88.53;;;41.05;;
50683;SDS011;36654;45.042;38.994;2023-02-11T08:36:38;99.75;;;44.25;;
50683;SDS011;36654;45.042;38.994;2023-02-11T08:39:12;93.18;;;43.17;;
50683;SDS011;36654;45.042;38.994;2023-02-11T08:41:42;102.07;;;43.80;;
50683;SDS011;36654;45.042;38.994;2023-02-11T08:44:08;87.72;;;44.25;;
50683;SDS011;36654;45.042;38.994;2023-02-11T08:46:34;98.43;;;42.83;;
50683;SDS011;36654;45.042;38.994;2023-02-11T08:49:00;97.18;;;45.05;;
50683;SDS011;36654;45.042;38.994;2023-02-11T08:51:26;96.45;;;43.17;;
50683;SDS011;36654;45.042;38.994;2023-02-11T08:53:54;94.65;;;42.63;;
50683;SDS011;36654;45.042;38.994;2023-02-11T08:56:20;96.18;;;43.45;;
50683;SDS011;36654;45.042;38.994;2023-02-11T08:58:49;95.53;;;44.03;;
50683;SDS011;36654;45.042;38.994;2023-02-11T09:01:20;93.38;;;41.75;;
50683;SDS011;36654;45.042;38.994;2023-02-11T09:03:47;95.90;;;42.70;;
50683;SDS011;36654;45.042;38.994;2023-02-11T09:06:13;89.72;;;42.25;;
50683;SDS011;36654;45.042;38.994;2023-02-11T09:08:42;94.25;;;44.65;;
50683;SDS011;36654;45.042;38.994;2023-02-11T09:11:10;87.95;;;41.38;;
50683;SDS011;36654;45.042;38.994;2023-02-11T09:13:36;94.57;;;44.78;;
50683;SDS011;36654;45.042;38.994;2023-02-11T09:16:03;93.45;;;43.28;;
50683;SDS011;36654;45.042;38.994;2023-02-11T09:18:30;91.63;;;41.88;;
50683;SDS011;36654;45.042;38.994;2023-02-11T09:21:06;99.22;;;42.95;;
50683;SDS011;36654;45.042;38.994;2023-02-11T09:23:33;95.35;;;44.35;;
50683;SDS011;36654;45.042;38.994;2023-02-11T09:26:07;108.63;;;48.10;;
50683;SDS011;36654;45.042;38.994;2023-02-11T09:28:34;96.45;;;43.63;;
50683;SDS011;36654;45.042;38.994;2023-02-11T09:31:06;101.47;;;44.63;;
50683;SDS011;36654;45.042;38.994;2023-02-11T09:33:36;91.88;;;43.35;;
50683;SDS011;36654;45.042;38.994;2023-02-11T09:36:03;91.45;;;42.50;;
50683;SDS011;36654;45.042;38.994;2023-02-11T09:38:30;93.00;;;44.97;;
50683;SDS011;36654;45.042;38.994;2023-02-11T09:40:56;93.35;;;43.70;;
50683;SDS011;36654;45.042;38.994;2023-02-11T09:43:23;95.45;;;43.70;;
50683;SDS011;36654;45.042;38.994;2023-02-11T09:46:00;92.50;;;44.83;;
50683;SDS011;36654;45.042;38.994;2023-02-11T09:48:26;105.45;;;46.22;;
50683;SDS011;36654;45.042;38.994;2023-02-11T09:51:02;107.60;;;45.67;;
50683;SDS011;36654;45.042;38.994;2023-02-11T09:53:30;106.75;;;44.42;;
50683;SDS011;36654;45.042;38.994;2023-02-11T09:56:01;103.05;;;46.75;;
50683;SDS011;36654;45.042;38.994;2023-02-11T09:58:35;101.05;;;43.83;;
50683;SDS011;36654;45.042;38.994;2023-02-11T10:06:43;103.72;;;45.67;;
50683;SDS011;36654;45.042;38.994;2023-02-11T10:12:22;103.00;;;46.85;;
50683;SDS011;36654;45.042;38.994;2023-02-11T10:22:59;92.35;;;40.13;;
50683;SDS011;36654;45.042;38.994;2023-02-11T10:25:28;95.20;;;42.80;;
50683;SDS011;36654;45.042;38.994;2023-02-11T10:28:36;94.75;;;43.97;;
50683;SDS011;36654;45.042;38.994;2023-02-11T10:30:58;93.78;;;41.45;;
50683;SDS011;36654;45.042;38.994;2023-02-11T10:36:01;97.93;;;43.78;;
50683;SDS011;36654;45.042;38.994;2023-02-11T10:38:28;95.40;;;43.22;;
50683;SDS011;36654;45.042;38.994;2023-02-11T10:40:53;84.75;;;39.83;;
50683;SDS011;36654;45.042;38.994;2023-02-11T10:43:20;86.78;;;41.20;;
50683;SDS011;36654;45.042;38.994;2023-02-11T10:45:51;86.32;;;41.15;;
50683;SDS011;36654;45.042;38.994;2023-02-11T10:48:38;90.28;;;41.28;;
50683;SDS011;36654;45.042;38.994;2023-02-11T10:53:39;84.78;;;38.88;;
50683;SDS011;36654;45.042;38.994;2023-02-11T10:56:05;85.97;;;41.15;;
50683;SDS011;36654;45.042;38.994;2023-02-11T11:01:04;89.90;;;42.70;;
50683;SDS011;36654;45.042;38.994;2023-02-11T11:03:33;91.47;;;40.75;;
50683;SDS011;36654;45.042;38.994;2023-02-11T11:06:04;96.53;;;42.40;;
50683;SDS011;36654;45.042;38.994;2023-02-11T11:11:10;87.63;;;41.72;;
50683;SDS011;36654;45.042;38.994;2023-02-11T11:13:41;95.30;;;43.20;;
50683;SDS011;36654;45.042;38.994;2023-02-11T11:16:22;87.55;;;41.08;;
50683;SDS011;36654;45.042;38.994;2023-02-11T11:18:49;96.20;;;43.05;;
50683;SDS011;36654;45.042;38.994;2023-02-11T11:21:29;96.13;;;43.90;;
50683;SDS011;36654;45.042;38.994;2023-02-11T11:24:04;102.65;;;44.90;;
50683;SDS011;36654;45.042;38.994;2023-02-11T11:26:54;95.90;;;44.20;;
50683;SDS011;36654;45.042;38.994;2023-02-11T11:31:55;98.57;;;44.55;;
50683;SDS011;36654;45.042;38.994;2023-02-11T11:34:35;92.82;;;42.58;;
50683;SDS011;36654;45.042;38.994;2023-02-11T11:40:07;93.05;;;41.80;;
50683;SDS011;36654;45.042;38.994;2023-02-11T11:42:46;94.85;;;43.90;;
50683;SDS011;36654;45.042;38.994;2023-02-11T11:45:39;88.63;;;45.25;;
50683;SDS011;36654;45.042;38.994;2023-02-11T11:48:20;93.28;;;42.22;;
50683;SDS011;36654;45.042;38.994;2023-02-11T11:50:57;90.00;;;42.83;;
50683;SDS011;36654;45.042;38.994;2023-02-11T11:56:17;94.43;;;40.33;;
50683;SDS011;36654;45.042;38.994;2023-02-11T11:58:46;99.95;;;43.47;;
50683;SDS011;36654;45.042;38.994;2023-02-11T12:06:40;93.63;;;41.38;;
50683;SDS011;36654;45.042;38.994;2023-02-11T12:19:46;96.55;;;43.65;;
50683;SDS011;36654;45.042;38.994;2023-02-11T12:22:25;95.78;;;44.00;;
50683;SDS011;36654;45.042;38.994;2023-02-11T12:25:20;89.05;;;40.25;;
50683;SDS011;36654;45.042;38.994;2023-02-11T12:39:54;80.40;;;34.72;;
50683;SDS011;36654;45.042;38.994;2023-02-11T12:42:36;68.97;;;33.20;;
50683;SDS011;36654;45.042;38.994;2023-02-11T12:45:48;74.40;;;33.15;;
50683;SDS011;36654;45.042;38.994;2023-02-11T12:56:51;76.80;;;32.90;;
50683;SDS011;36654;45.042;38.994;2023-02-11T13:01:57;72.55;;;33.50;;
50683;SDS011;36654;45.042;38.994;2023-02-11T13:04:32;75.00;;;34.25;;
50683;SDS011;36654;45.042;38.994;2023-02-11T13:07:10;69.15;;;33.30;;
50683;SDS011;36654;45.042;38.994;2023-02-11T13:10:10;73.07;;;34.45;;
50683;SDS011;36654;45.042;38.994;2023-02-11T13:12:55;71.35;;;33.50;;
50683;SDS011;36654;45.042;38.994;2023-02-11T13:15:42;75.10;;;34.53;;
50683;SDS011;36654;45.042;38.994;2023-02-11T13:18:14;76.85;;;35.95;;
50683;SDS011;36654;45.042;38.994;2023-02-11T13:20:58;78.38;;;34.90;;
50683;SDS011;36654;45.042;38.994;2023-02-11T13:24:01;77.30;;;37.33;;
50683;SDS011;36654;45.042;38.994;2023-02-11T13:35:34;70.60;;;36.25;;
50683;SDS011;36654;45.042;38.994;2023-02-11T13:38:02;79.20;;;36.50;;
50683;SDS011;36654;45.042;38.994;2023-02-11T13:40:32;84.00;;;38.20;;
50683;SDS011;36654;45.042;38.994;2023-02-11T13:45:28;74.18;;;35.10;;
50683;SDS011;36654;45.042;38.994;2023-02-11T13:48:16;87.88;;;38.60;;
50683;SDS011;36654;45.042;38.994;2023-02-11T13:50:47;83.18;;;36.25;;
50683;SDS011;36654;45.042;38.994;2023-02-11T13:53:15;73.18;;;35.58;;
50683;SDS011;36654;45.042;38.994;2023-02-11T13:55:46;83.22;;;36.25;;
50683;SDS011;36654;45.042;38.994;2023-02-11T13:58:15;77.18;;;35.55;;
50683;SDS011;36654;45.042;38.994;2023-02-11T14:00:43;81.65;;;37.97;;
50683;SDS011;36654;45.042;38.994;2023-02-11T14:08:58;85.47;;;37.35;;
50683;SDS011;36654;45.042;38.994;2023-02-11T14:22:38;83.32;;;37.72;;
50683;SDS011;36654;45.042;38.994;2023-02-11T14:24:56;82.32;;;36.53;;
50683;SDS011;36654;45.042;38.994;2023-02-11T14:38:06;88.40;;;37.60;;
50683;SDS011;36654;45.042;38.994;2023-02-11T14:40:46;79.20;;;37.60;;
50683;SDS011;36654;45.042;38.994;2023-02-11T14:45:59;83.65;;;36.70;;
50683;SDS011;36654;45.042;38.994;2023-02-11T14:48:28;86.20;;;37.58;;
50683;SDS011;36654;45.042;38.994;2023-02-11T14:53:48;88.60;;;39.50;;
50683;SDS011;36654;45.042;38.994;2023-02-11T14:56:21;85.05;;;39.63;;
50683;SDS011;36654;45.042;38.994;2023-02-11T14:58:51;89.03;;;40.60;;
50683;SDS011;36654;45.042;38.994;2023-02-11T15:01:40;77.30;;;37.35;;
50683;SDS011;36654;45.042;38.994;2023-02-11T15:04:21;76.75;;;33.58;;
50683;SDS011;36654;45.042;38.994;2023-02-11T15:06:48;81.60;;;36.63;;
50683;SDS011;36654;45.042;38.994;2023-02-11T15:09:18;84.50;;;37.45;;
50683;SDS011;36654;45.042;38.994;2023-02-11T15:11:53;88.55;;;38.85;;
50683;SDS011;36654;45.042;38.994;2023-02-11T15:14:22;89.97;;;41.40;;
50683;SDS011;36654;45.042;38.994;2023-02-11T15:16:57;93.75;;;41.83;;
50683;SDS011;36654;45.042;38.994;2023-02-11T15:19:36;86.38;;;39.65;;
50683;SDS011;36654;45.042;38.994;2023-02-11T15:22:27;88.88;;;40.33;;
50683;SDS011;36654;45.042;38.994;2023-02-11T15:27:38;87.80;;;40.58;;
50683;SDS011;36654;45.042;38.994;2023-02-11T15:30:27;93.43;;;40.55;;
50683;SDS011;36654;45.042;38.994;2023-02-11T15:32:59;88.18;;;39.60;;
50683;SDS011;36654;45.042;38.994;2023-02-11T15:35:34;90.50;;;40.90;;
50683;SDS011;36654;45.042;38.994;2023-02-11T15:38:03;92.93;;;39.90;;
50683;SDS011;36654;45.042;38.994;2023-02-11T15:40:30;94.55;;;42.00;;
50683;SDS011;36654;45.042;38.994;2023-02-11T15:43:01;88.50;;;39.95;;
50683;SDS011;36654;45.042;38.994;2023-02-11T15:45:29;88.03;;;39.78;;
50683;SDS011;36654;45.042;38.994;2023-02-11T15:47:57;83.18;;;38.50;;
50683;SDS011;36654;45.042;38.994;2023-02-11T15:50:30;88.20;;;37.75;;
50683;SDS011;36654;45.042;38.994;2023-02-11T15:53:01;90.60;;;40.20;;
50683;SDS011;36654;45.042;38.994;2023-02-11T15:55:41;82.13;;;37.90;;
50683;SDS011;36654;45.042;38.994;2023-02-11T15:58:07;90.30;;;39.05;;
50683;SDS011;36654;45.042;38.994;2023-02-11T16:00:35;79.80;;;35.90;;
50683;SDS011;36654;45.042;38.994;2023-02-11T16:03:17;79.68;;;37.92;;
50683;SDS011;36654;45.042;38.994;2023-02-11T16:05:48;79.85;;;34.83;;
50683;SDS011;36654;45.042;38.994;2023-02-11T16:08:27;80.18;;;35.67;;
50683;SDS011;36654;45.042;38.994;2023-02-11T16:11:01;74.93;;;32.38;;
50683;SDS011;36654;45.042;38.994;2023-02-11T16:13:41;79.03;;;35.58;;
50683;SDS011;36654;45.042;38.994;2023-02-11T16:16:19;81.30;;;34.92;;
50683;SDS011;36654;45.042;38.994;2023-02-11T16:18:51;78.28;;;36.42;;
50683;SDS011;36654;45.042;38.994;2023-02-11T16:21:20;81.53;;;36.00;;
50683;SDS011;36654;45.042;38.994;2023-02-11T16:29:01;76.43;;;33.58;;
50683;SDS011;36654;45.042;38.994;2023-02-11T16:31:47;77.78;;;35.25;;
50683;SDS011;36654;45.042;38.994;2023-02-11T16:34:23;77.75;;;35.70;;
50683;SDS011;36654;45.042;38.994;2023-02-11T16:36:50;81.22;;;34.65;;
50683;SDS011;36654;45.042;38.994;2023-02-11T16:39:17;77.50;;;35.03;;
50683;SDS011;36654;45.042;38.994;2023-02-11T16:41:46;81.13;;;35.03;;
50683;SDS011;36654;45.042;38.994;2023-02-11T16:44:12;84.97;;;36.13;;
50683;SDS011;36654;45.042;38.994;2023-02-11T16:46:38;80.13;;;36.22;;
50683;SDS011;36654;45.042;38.994;2023-02-11T16:49:08;79.18;;;35.65;;
50683;SDS011;36654;45.042;38.994;2023-02-11T16:51:39;79.80;;;36.05;;
50683;SDS011;36654;45.042;38.994;2023-02-11T16:54:14;87.38;;;38.38;;
50683;SDS011;36654;45.042;38.994;2023-02-11T16:56:44;78.03;;;35.20;;
50683;SDS011;36654;45.042;38.994;2023-02-11T16:59:12;79.85;;;36.83;;
50683;SDS011;36654;45.042;38.994;2023-02-11T17:01:39;77.80;;;36.60;;
50683;SDS011;36654;45.042;38.994;2023-02-11T17:04:06;102.65;;;42.67;;
50683;SDS011;36654;45.042;38.994;2023-02-11T17:06:42;86.50;;;39.33;;
50683;SDS011;36654;45.042;38.994;2023-02-11T17:09:22;74.90;;;36.05;;
50683;SDS011;36654;45.042;38.994;2023-02-11T17:11:49;82.07;;;37.00;;
50683;SDS011;36654;45.042;38.994;2023-02-11T17:14:15;82.25;;;37.67;;
50683;SDS011;36654;45.042;38.994;2023-02-11T17:16:44;76.75;;;35.38;;
50683;SDS011;36654;45.042;38.994;2023-02-11T17:19:11;73.55;;;35.25;;